sensor_id;sensor_type;location;lat;lon;timestamp;temperature;humidity
47791;DHT22;33547;49.044;1.156;2023-07-31T00:01:26;18.90;99.90
47791;DHT22;33547;49.044;1.156;2023-07-31T00:03:52;18.80;99.90
47791;DHT22;33547;49.044;1.156;2023-07-31T00:06:30;18.80;99.90
47791;DHT22;33547;49.044;1.156;2023-07-31T00:09:02;18.80;99.90
47791;DHT22;33547;49.044;1.156;2023-07-31T00:11:31;18.80;99.90
47791;DHT22;33547;49.044;1.156;2023-07-31T00:14:19;18.90;99.90
47791;DHT22;33547;49.044;1.156;2023-07-31T00:16:45;18.90;99.90
47791;DHT22;33547;49.044;1.156;2023-07-31T00:19:15;18.90;99.90
47791;DHT22;33547;49.044;1.156;2023-07-31T00:21:48;18.90;99.90
47791;DHT22;33547;49.044;1.156;2023-07-31T00:24:15;18.90;99.90
47791;DHT22;33547;49.044;1.156;2023-07-31T00:26:44;18.80;99.90
47791;DHT22;33547;49.044;1.156;2023-07-31T00:29:13;18.90;99.90
47791;DHT22;33547;49.044;1.156;2023-07-31T00:31:45;18.80;99.90
47791;DHT22;33547;49.044;1.156;2023-07-31T00:34:15;18.80;99.90
47791;DHT22;33547;49.044;1.156;2023-07-31T00:36:46;18.80;99.90
47791;DHT22;33547;49.044;1.156;2023-07-31T00:39:13;18.80;99.90
47791;DHT22;33547;49.044;1.156;2023-07-31T00:41:45;18.80;99.90
47791;DHT22;33547;49.044;1.156;2023-07-31T00:44:20;18.80;99.90
47791;DHT22;33547;49.044;1.156;2023-07-31T00:46:49;18.70;99.90
47791;DHT22;33547;49.044;1.156;2023-07-31T00:49:19;18.70;99.90
47791;DHT22;33547;49.044;1.156;2023-07-31T00:51:59;18.70;99.90
47791;DHT22;33547;49.044;1.156;2023-07-31T00:54:32;18.70;99.90
47791;DHT22;33547;49.044;1.156;2023-07-31T00:57:07;18.70;99.90
47791;DHT22;33547;49.044;1.156;2023-07-31T00:59:34;18.70;99.90
47791;DHT22;33547;49.044;1.156;2023-07-31T01:02:21;18.70;99.90
47791;DHT22;33547;49.044;1.156;2023-07-31T01:04:54;18.60;99.90
47791;DHT22;33547;49.044;1.156;2023-07-31T01:10:18;18.60;99.90
47791;DHT22;33547;49.044;1.156;2023-07-31T01:12:46;18.70;99.90
47791;DHT22;33547;49.044;1.156;2023-07-31T01:15:25;18.60;99.90
47791;DHT22;33547;49.044;1.156;2023-07-31T01:17:58;18.60;99.90
47791;DHT22;33547;49.044;1.156;2023-07-31T01:20:36;18.60;99.90
47791;DHT22;33547;49.044;1.156;2023-07-31T01:23:08;18.60;99.90
47791;DHT22;33547;49.044;1.156;2023-07-31T01:25:52;18.60;99.90
47791;DHT22;33547;49.044;1.156;2023-07-31T01:28:33;18.60;99.90
47791;DHT22;33547;49.044;1.156;2023-07-31T01:31:11;18.50;99.90
47791;DHT22;33547;49.044;1.156;2023-07-31T01:33:38;18.50;99.90
47791;DHT22;33547;49.044;1.156;2023-07-31T01:36:05;18.60;99.90
47791;DHT22;33547;49.044;1.156;2023-07-31T01:38:37;18.50;99.90
47791;DHT22;33547;49.044;1.156;2023-07-31T01:41:06;18.50;99.90
47791;DHT22;33547;49.044;1.156;2023-07-31T01:43:34;18.40;99.90
47791;DHT22;33547;49.044;1.156;2023-07-31T01:46:06;18.50;99.90
47791;DHT22;33547;49.044;1.156;2023-07-31T01:48:43;18.50;99.90
47791;DHT22;33547;49.044;1.156;2023-07-31T01:51:09;18.50;99.90
47791;DHT22;33547;49.044;1.156;2023-07-31T01:53:37;18.50;99.90
47791;DHT22;33547;49.044;1.156;2023-07-31T01:56:10;18.50;99.90
47791;DHT22;33547;49.044;1.156;2023-07-31T01:58:43;18.50;99.90
47791;DHT22;33547;49.044;1.156;2023-07-31T02:01:12;18.50;99.90
47791;DHT22;33547;49.044;1.156;2023-07-31T02:03:37;18.50;99.90
47791;DHT22;33547;49.044;1.156;2023-07-31T02:06:03;18.50;99.90
47791;DHT22;33547;49.044;1.156;2023-07-31T02:08:35;18.40;99.90
47791;DHT22;33547;49.044;1.156;2023-07-31T02:11:03;18.40;99.90
47791;DHT22;33547;49.044;1.156;2023-07-31T02:13:38;18.40;99.90
47791;DHT22;33547;49.044;1.156;2023-07-31T02:16:09;18.40;99.90
47791;DHT22;33547;49.044;1.156;2023-07-31T02:18:38;18.40;99.90
47791;DHT22;33547;49.044;1.156;2023-07-31T02:21:12;18.40;99.90
47791;DHT22;33547;49.044;1.156;2023-07-31T02:23:39;18.40;99.90
47791;DHT22;33547;49.044;1.156;2023-07-31T02:26:27;18.30;99.90
47791;DHT22;33547;49.044;1.156;2023-07-31T02:28:53;18.30;99.90
47791;DHT22;33547;49.044;1.156;2023-07-31T02:31:20;18.30;99.90
47791;DHT22;33547;49.044;1.156;2023-07-31T02:33:54;18.30;99.90
47791;DHT22;33547;49.044;1.156;2023-07-31T02:36:20;18.30;99.90
47791;DHT22;33547;49.044;1.156;2023-07-31T02:38:46;18.30;99.90
47791;DHT22;33547;49.044;1.156;2023-07-31T02:41:13;18.30;99.90
47791;DHT22;33547;49.044;1.156;2023-07-31T02:43:42;18.20;99.90
47791;DHT22;33547;49.044;1.156;2023-07-31T02:46:10;18.20;99.90
47791;DHT22;33547;49.044;1.156;2023-07-31T02:48:42;18.10;99.90
47791;DHT22;33547;49.044;1.156;2023-07-31T02:51:10;18.20;99.90
47791;DHT22;33547;49.044;1.156;2023-07-31T02:53:39;18.10;99.90
47791;DHT22;33547;49.044;1.156;2023-07-31T02:56:15;18.10;99.90
47791;DHT22;33547;49.044;1.156;2023-07-31T02:58:42;18.20;99.90
47791;DHT22;33547;49.044;1.156;2023-07-31T03:01:08;18.20;99.90
47791;DHT22;33547;49.044;1.156;2023-07-31T03:03:34;18.10;99.90
47791;DHT22;33547;49.044;1.156;2023-07-31T03:06:00;18.20;99.90
47791;DHT22;33547;49.044;1.156;2023-07-31T03:08:26;18.20;99.90
47791;DHT22;33547;49.044;1.156;2023-07-31T03:10:53;18.30;99.90
47791;DHT22;33547;49.044;1.156;2023-07-31T03:13:19;18.20;99.90
47791;DHT22;33547;49.044;1.156;2023-07-31T03:15:45;18.20;99.90
47791;DHT22;33547;49.044;1.156;2023-07-31T03:18:11;18.20;99.90
47791;DHT22;33547;49.044;1.156;2023-07-31T03:20:37;18.20;99.90
47791;DHT22;33547;49.044;1.156;2023-07-31T03:23:08;18.10;99.90
47791;DHT22;33547;49.044;1.156;2023-07-31T03:25:34;18.20;99.90
47791;DHT22;33547;49.044;1.156;2023-07-31T03:27:59;18.20;99.90
47791;DHT22;33547;49.044;1.156;2023-07-31T03:30:29;18.20;99.90
47791;DHT22;33547;49.044;1.156;2023-07-31T03:32:55;18.20;99.90
47791;DHT22;33547;49.044;1.156;2023-07-31T03:35:24;18.20;99.90
47791;DHT22;33547;49.044;1.156;2023-07-31T03:37:50;18.10;99.90
47791;DHT22;33547;49.044;1.156;2023-07-31T03:40:24;18.10;99.90
47791;DHT22;33547;49.044;1.156;2023-07-31T03:42:52;18.10;99.90
47791;DHT22;33547;49.044;1.156;2023-07-31T03:45:18;18.00;99.90
47791;DHT22;33547;49.044;1.156;2023-07-31T03:47:49;18.10;99.90
47791;DHT22;33547;49.044;1.156;2023-07-31T03:50:24;18.00;99.90
47791;DHT22;33547;49.044;1.156;2023-07-31T03:52:51;17.90;99.90
47791;DHT22;33547;49.044;1.156;2023-07-31T03:55:25;17.90;99.90
47791;DHT22;33547;49.044;1.156;2023-07-31T03:57:51;18.00;99.90
47791;DHT22;33547;49.044;1.156;2023-07-31T04:00:17;18.00;99.90
47791;DHT22;33547;49.044;1.156;2023-07-31T04:02:48;17.90;99.90
47791;DHT22;33547;49.044;1.156;2023-07-31T04:05:16;18.00;99.90
47791;DHT22;33547;49.044;1.156;2023-07-31T04:07:42;17.90;99.90
47791;DHT22;33547;49.044;1.156;2023-07-31T04:10:10;17.90;99.90
47791;DHT22;33547;49.044;1.156;2023-07-31T04:12:35;17.90;99.90
47791;DHT22;33547;49.044;1.156;2023-07-31T04:15:01;17.90;99.90
47791;DHT22;33547;49.044;1.156;2023-07-31T04:17:27;17.90;99.90
47791;DHT22;33547;49.044;1.156;2023-07-31T04:19:53;17.90;99.90
47791;DHT22;33547;49.044;1.156;2023-07-31T04:22:21;17.90;99.90
47791;DHT22;33547;49.044;1.156;2023-07-31T04:24:55;17.90;99.90
47791;DHT22;33547;49.044;1.156;2023-07-31T04:27:20;17.90;99.90
47791;DHT22;33547;49.044;1.156;2023-07-31T04:29:52;17.90;99.90
47791;DHT22;33547;49.044;1.156;2023-07-31T04:32:21;17.90;99.90
47791;DHT22;33547;49.044;1.156;2023-07-31T04:34:46;17.90;99.90
47791;DHT22;33547;49.044;1.156;2023-07-31T04:37:15;17.90;99.90
47791;DHT22;33547;49.044;1.156;2023-07-31T04:39:41;17.90;99.90
47791;DHT22;33547;49.044;1.156;2023-07-31T04:42:15;17.90;99.90
47791;DHT22;33547;49.044;1.156;2023-07-31T04:44:41;17.90;99.90
47791;DHT22;33547;49.044;1.156;2023-07-31T04:47:07;17.90;99.90
47791;DHT22;33547;49.044;1.156;2023-07-31T04:49:38;17.90;99.90
47791;DHT22;33547;49.044;1.156;2023-07-31T04:52:12;18.00;99.90
47791;DHT22;33547;49.044;1.156;2023-07-31T04:54:38;17.90;99.90
47791;DHT22;33547;49.044;1.156;2023-07-31T04:57:07;18.00;99.90
47791;DHT22;33547;49.044;1.156;2023-07-31T04:59:32;17.90;99.90
47791;DHT22;33547;49.044;1.156;2023-07-31T05:01:58;17.90;99.90
47791;DHT22;33547;49.044;1.156;2023-07-31T05:04:27;17.90;99.90
47791;DHT22;33547;49.044;1.156;2023-07-31T05:06:58;17.90;99.90
47791;DHT22;33547;49.044;1.156;2023-07-31T05:09:33;17.90;99.90
47791;DHT22;33547;49.044;1.156;2023-07-31T05:12:06;18.00;99.90
47791;DHT22;33547;49.044;1.156;2023-07-31T05:14:33;18.00;99.90
47791;DHT22;33547;49.044;1.156;2023-07-31T05:17:05;18.00;99.90
47791;DHT22;33547;49.044;1.156;2023-07-31T05:19:34;18.00;99.90
47791;DHT22;33547;49.044;1.156;2023-07-31T05:22:10;17.90;99.90
47791;DHT22;33547;49.044;1.156;2023-07-31T05:24:36;18.00;99.90
47791;DHT22;33547;49.044;1.156;2023-07-31T05:27:04;18.00;99.90
47791;DHT22;33547;49.044;1.156;2023-07-31T05:29:30;18.10;99.90
47791;DHT22;33547;49.044;1.156;2023-07-31T05:31:56;18.20;99.90
47791;DHT22;33547;49.044;1.156;2023-07-31T05:34:27;18.20;99.90
47791;DHT22;33547;49.044;1.156;2023-07-31T05:36:55;18.20;99.90
47791;DHT22;33547;49.044;1.156;2023-07-31T05:39:33;18.20;99.90
47791;DHT22;33547;49.044;1.156;2023-07-31T05:41:59;18.20;99.90
47791;DHT22;33547;49.044;1.156;2023-07-31T05:44:36;18.30;99.90
47791;DHT22;33547;49.044;1.156;2023-07-31T05:47:03;18.30;99.90
47791;DHT22;33547;49.044;1.156;2023-07-31T05:49:29;18.30;99.90
47791;DHT22;33547;49.044;1.156;2023-07-31T05:52:02;18.40;99.90
47791;DHT22;33547;49.044;1.156;2023-07-31T05:54:28;18.50;99.90
47791;DHT22;33547;49.044;1.156;2023-07-31T05:56:59;18.60;99.90
47791;DHT22;33547;49.044;1.156;2023-07-31T05:59:25;18.70;99.90
47791;DHT22;33547;49.044;1.156;2023-07-31T06:01:58;18.70;99.90
47791;DHT22;33547;49.044;1.156;2023-07-31T06:04:24;18.70;99.90
47791;DHT22;33547;49.044;1.156;2023-07-31T06:06:53;18.70;99.90
47791;DHT22;33547;49.044;1.156;2023-07-31T06:09:19;18.80;99.90
47791;DHT22;33547;49.044;1.156;2023-07-31T06:11:48;18.80;99.90
47791;DHT22;33547;49.044;1.156;2023-07-31T06:14:21;18.80;99.90
47791;DHT22;33547;49.044;1.156;2023-07-31T06:16:50;18.90;99.90
47791;DHT22;33547;49.044;1.156;2023-07-31T06:19:15;19.10;99.90
47791;DHT22;33547;49.044;1.156;2023-07-31T06:21:41;19.20;99.90
47791;DHT22;33547;49.044;1.156;2023-07-31T06:24:12;19.30;99.90
47791;DHT22;33547;49.044;1.156;2023-07-31T06:26:47;19.40;99.90
47791;DHT22;33547;49.044;1.156;2023-07-31T06:29:20;19.50;99.90
47791;DHT22;33547;49.044;1.156;2023-07-31T06:31:46;19.50;99.90
47791;DHT22;33547;49.044;1.156;2023-07-31T06:34:21;19.60;99.90
47791;DHT22;33547;49.044;1.156;2023-07-31T06:36:49;19.80;99.90
47791;DHT22;33547;49.044;1.156;2023-07-31T06:39:18;19.90;99.90
47791;DHT22;33547;49.044;1.156;2023-07-31T06:41:46;19.90;99.90
47791;DHT22;33547;49.044;1.156;2023-07-31T06:44:14;20.10;99.90
47791;DHT22;33547;49.044;1.156;2023-07-31T06:46:40;20.00;99.90
47791;DHT22;33547;49.044;1.156;2023-07-31T06:49:14;20.00;99.90
47791;DHT22;33547;49.044;1.156;2023-07-31T06:51:56;20.00;99.90
47791;DHT22;33547;49.044;1.156;2023-07-31T06:54:33;20.00;99.90
47791;DHT22;33547;49.044;1.156;2023-07-31T06:57:02;20.00;99.90
47791;DHT22;33547;49.044;1.156;2023-07-31T06:59:29;20.00;99.90
47791;DHT22;33547;49.044;1.156;2023-07-31T07:02:16;20.10;99.90
47791;DHT22;33547;49.044;1.156;2023-07-31T07:04:49;20.10;99.90
47791;DHT22;33547;49.044;1.156;2023-07-31T07:07:22;20.30;99.90
47791;DHT22;33547;49.044;1.156;2023-07-31T07:09:51;20.90;99.90
47791;DHT22;33547;49.044;1.156;2023-07-31T07:12:32;20.90;99.90
47791;DHT22;33547;49.044;1.156;2023-07-31T07:15:06;21.30;99.90
47791;DHT22;33547;49.044;1.156;2023-07-31T07:17:43;21.60;99.90
47791;DHT22;33547;49.044;1.156;2023-07-31T07:20:17;21.60;99.90
47791;DHT22;33547;49.044;1.156;2023-07-31T07:22:45;21.80;99.90
47791;DHT22;33547;49.044;1.156;2023-07-31T07:25:15;21.90;99.90
47791;DHT22;33547;49.044;1.156;2023-07-31T07:27:52;21.90;99.90
47791;DHT22;33547;49.044;1.156;2023-07-31T07:30:29;21.80;99.90
47791;DHT22;33547;49.044;1.156;2023-07-31T07:33:14;21.80;99.90
47791;DHT22;33547;49.044;1.156;2023-07-31T07:35:44;21.70;99.90
47791;DHT22;33547;49.044;1.156;2023-07-31T07:38:25;21.50;99.90
47791;DHT22;33547;49.044;1.156;2023-07-31T07:40:51;21.40;99.90
47791;DHT22;33547;49.044;1.156;2023-07-31T07:43:26;21.10;99.90
47791;DHT22;33547;49.044;1.156;2023-07-31T07:45:57;20.90;99.90
47791;DHT22;33547;49.044;1.156;2023-07-31T07:51:12;20.80;99.90
47791;DHT22;33547;49.044;1.156;2023-07-31T07:53:40;21.00;99.90
47791;DHT22;33547;49.044;1.156;2023-07-31T07:56:08;20.90;99.90
47791;DHT22;33547;49.044;1.156;2023-07-31T08:01:19;21.00;99.90
47791;DHT22;33547;49.044;1.156;2023-07-31T08:03:49;21.00;99.90
47791;DHT22;33547;49.044;1.156;2023-07-31T08:06:18;20.90;99.90
47791;DHT22;33547;49.044;1.156;2023-07-31T08:08:51;20.90;99.90
47791;DHT22;33547;49.044;1.156;2023-07-31T08:11:20;20.70;99.90
47791;DHT22;33547;49.044;1.156;2023-07-31T08:13:49;20.60;99.90
47791;DHT22;33547;49.044;1.156;2023-07-31T08:16:23;20.50;99.90
47791;DHT22;33547;49.044;1.156;2023-07-31T08:19:00;20.40;99.90
47791;DHT22;33547;49.044;1.156;2023-07-31T08:21:40;20.30;99.90
47791;DHT22;33547;49.044;1.156;2023-07-31T08:24:21;20.30;99.90
47791;DHT22;33547;49.044;1.156;2023-07-31T08:26:47;20.20;99.90
47791;DHT22;33547;49.044;1.156;2023-07-31T08:29:16;20.10;99.90
47791;DHT22;33547;49.044;1.156;2023-07-31T08:31:42;20.00;99.90
47791;DHT22;33547;49.044;1.156;2023-07-31T08:34:09;20.00;99.90
47791;DHT22;33547;49.044;1.156;2023-07-31T08:36:38;19.80;99.90
47791;DHT22;33547;49.044;1.156;2023-07-31T08:39:13;19.80;99.90
47791;DHT22;33547;49.044;1.156;2023-07-31T08:41:40;19.80;99.90
47791;DHT22;33547;49.044;1.156;2023-07-31T08:44:12;19.80;99.90
47791;DHT22;33547;49.044;1.156;2023-07-31T08:46:40;19.60;99.90
47791;DHT22;33547;49.044;1.156;2023-07-31T08:49:12;19.50;99.90
47791;DHT22;33547;49.044;1.156;2023-07-31T08:51:49;19.00;99.90
47791;DHT22;33547;49.044;1.156;2023-07-31T08:54:18;18.30;99.90
47791;DHT22;33547;49.044;1.156;2023-07-31T08:56:59;17.90;99.90
47791;DHT22;33547;49.044;1.156;2023-07-31T08:59:29;17.80;99.90
47791;DHT22;33547;49.044;1.156;2023-07-31T09:02:02;17.70;99.90
47791;DHT22;33547;49.044;1.156;2023-07-31T09:04:38;17.70;99.90
47791;DHT22;33547;49.044;1.156;2023-07-31T09:07:06;17.70;99.90
47791;DHT22;33547;49.044;1.156;2023-07-31T09:09:41;17.70;99.90
47791;DHT22;33547;49.044;1.156;2023-07-31T09:12:15;17.60;99.90
47791;DHT22;33547;49.044;1.156;2023-07-31T09:14:44;17.60;99.90
47791;DHT22;33547;49.044;1.156;2023-07-31T09:17:11;17.80;99.90
47791;DHT22;33547;49.044;1.156;2023-07-31T09:19:56;18.10;99.90
